sensor_id;sensor_type;location;lat;lon;timestamp;P1;durP1;ratioP1;P2;durP2;ratioP2
4867;SDS011;2448;48.086;10.862;2023-07-08T00:00:51;13.63;;;4.20;;
4867;SDS011;2448;48.086;10.862;2023-07-08T00:03:17;5.00;;;3.90;;
4867;SDS011;2448;48.086;10.862;2023-07-08T00:05:43;8.73;;;4.03;;
4867;SDS011;2448;48.086;10.862;2023-07-08T00:08:16;7.93;;;4.10;;
4867;SDS011;2448;48.086;10.862;2023-07-08T00:10:42;10.27;;;4.50;;
4867;SDS011;2448;48.086;10.862;2023-07-08T00:13:07;9.67;;;4.60;;
4867;SDS011;2448;48.086;10.862;2023-07-08T00:15:33;12.00;;;3.90;;
4867;SDS011;2448;48.086;10.862;2023-07-08T00:17:59;5.37;;;3.70;;
4867;SDS011;2448;48.086;10.862;2023-07-08T00:22:56;8.10;;;4.33;;
4867;SDS011;2448;48.086;10.862;2023-07-08T00:25:22;9.30;;;3.97;;
4867;SDS011;2448;48.086;10.862;2023-07-08T00:27:47;6.47;;;3.90;;
4867;SDS011;2448;48.086;10.862;2023-07-08T00:32:38;8.20;;;4.73;;
4867;SDS011;2448;48.086;10.862;2023-07-08T00:35:06;7.10;;;4.17;;
4867;SDS011;2448;48.086;10.862;2023-07-08T00:37:32;5.87;;;3.87;;
4867;SDS011;2448;48.086;10.862;2023-07-08T00:39:57;9.10;;;4.20;;
4867;SDS011;2448;48.086;10.862;2023-07-08T00:42:24;4.40;;;3.50;;
4867;SDS011;2448;48.086;10.862;2023-07-08T00:44:49;8.23;;;4.23;;
4867;SDS011;2448;48.086;10.862;2023-07-08T00:47:15;9.90;;;3.80;;
4867;SDS011;2448;48.086;10.862;2023-07-08T00:52:19;6.23;;;4.03;;
4867;SDS011;2448;48.086;10.862;2023-07-08T00:54:45;10.40;;;4.27;;
4867;SDS011;2448;48.086;10.862;2023-07-08T00:57:10;7.73;;;3.80;;
4867;SDS011;2448;48.086;10.862;2023-07-08T00:59:38;10.07;;;5.27;;
4867;SDS011;2448;48.086;10.862;2023-07-08T01:02:06;8.00;;;5.03;;
4867;SDS011;2448;48.086;10.862;2023-07-08T01:05:18;10.53;;;4.97;;
4867;SDS011;2448;48.086;10.862;2023-07-08T01:07:18;9.00;;;4.30;;
4867;SDS011;2448;48.086;10.862;2023-07-08T01:09:47;8.20;;;5.03;;
4867;SDS011;2448;48.086;10.862;2023-07-08T01:12:18;9.13;;;4.63;;
4867;SDS011;2448;48.086;10.862;2023-07-08T01:14:45;12.30;;;5.10;;
4867;SDS011;2448;48.086;10.862;2023-07-08T01:17:11;10.07;;;4.83;;
4867;SDS011;2448;48.086;10.862;2023-07-08T01:19:39;10.73;;;5.00;;
4867;SDS011;2448;48.086;10.862;2023-07-08T01:22:05;7.10;;;4.33;;
4867;SDS011;2448;48.086;10.862;2023-07-08T01:24:31;9.03;;;4.77;;
4867;SDS011;2448;48.086;10.862;2023-07-08T01:26:58;7.70;;;4.60;;
4867;SDS011;2448;48.086;10.862;2023-07-08T01:29:24;10.57;;;5.70;;
4867;SDS011;2448;48.086;10.862;2023-07-08T01:31:50;13.63;;;4.53;;
4867;SDS011;2448;48.086;10.862;2023-07-08T01:34:16;6.50;;;4.40;;
4867;SDS011;2448;48.086;10.862;2023-07-08T01:36:43;8.10;;;4.10;;
4867;SDS011;2448;48.086;10.862;2023-07-08T01:39:13;18.63;;;4.50;;
4867;SDS011;2448;48.086;10.862;2023-07-08T01:41:39;8.67;;;5.03;;
4867;SDS011;2448;48.086;10.862;2023-07-08T01:44:05;8.67;;;3.87;;
4867;SDS011;2448;48.086;10.862;2023-07-08T01:46:30;6.83;;;4.23;;
4867;SDS011;2448;48.086;10.862;2023-07-08T01:48:57;9.60;;;4.20;;
4867;SDS011;2448;48.086;10.862;2023-07-08T01:51:24;8.97;;;4.27;;
4867;SDS011;2448;48.086;10.862;2023-07-08T01:53:50;11.10;;;4.40;;
4867;SDS011;2448;48.086;10.862;2023-07-08T01:56:16;7.13;;;4.23;;
4867;SDS011;2448;48.086;10.862;2023-07-08T01:58:41;6.93;;;4.37;;
4867;SDS011;2448;48.086;10.862;2023-07-08T02:01:07;8.80;;;4.30;;
4867;SDS011;2448;48.086;10.862;2023-07-08T02:03:33;12.90;;;4.40;;
4867;SDS011;2448;48.086;10.862;2023-07-08T02:05:58;8.80;;;4.70;;
4867;SDS011;2448;48.086;10.862;2023-07-08T02:08:23;7.63;;;4.37;;
4867;SDS011;2448;48.086;10.862;2023-07-08T02:10:51;5.63;;;3.87;;
4867;SDS011;2448;48.086;10.862;2023-07-08T02:13:17;8.23;;;5.27;;
4867;SDS011;2448;48.086;10.862;2023-07-08T02:15:42;8.70;;;4.73;;
4867;SDS011;2448;48.086;10.862;2023-07-08T02:18:08;13.90;;;5.53;;
4867;SDS011;2448;48.086;10.862;2023-07-08T02:20:34;9.83;;;5.20;;
4867;SDS011;2448;48.086;10.862;2023-07-08T02:22:59;9.40;;;5.57;;
4867;SDS011;2448;48.086;10.862;2023-07-08T02:25:24;13.90;;;5.20;;
4867;SDS011;2448;48.086;10.862;2023-07-08T02:27:50;5.53;;;4.20;;
4867;SDS011;2448;48.086;10.862;2023-07-08T02:30:15;9.50;;;5.03;;
4867;SDS011;2448;48.086;10.862;2023-07-08T02:32:40;8.70;;;5.20;;
4867;SDS011;2448;48.086;10.862;2023-07-08T02:35:06;10.47;;;4.77;;
4867;SDS011;2448;48.086;10.862;2023-07-08T02:37:32;8.00;;;4.43;;
4867;SDS011;2448;48.086;10.862;2023-07-08T02:39:58;12.33;;;5.50;;
4867;SDS011;2448;48.086;10.862;2023-07-08T02:42:23;6.90;;;4.13;;
4867;SDS011;2448;48.086;10.862;2023-07-08T02:44:49;9.60;;;4.60;;
4867;SDS011;2448;48.086;10.862;2023-07-08T02:47:14;7.97;;;4.60;;
4867;SDS011;2448;48.086;10.862;2023-07-08T02:49:39;7.60;;;3.90;;
4867;SDS011;2448;48.086;10.862;2023-07-08T02:52:05;8.73;;;4.97;;
4867;SDS011;2448;48.086;10.862;2023-07-08T02:54:30;8.67;;;4.83;;
4867;SDS011;2448;48.086;10.862;2023-07-08T02:56:55;7.33;;;5.00;;
4867;SDS011;2448;48.086;10.862;2023-07-08T02:59:21;8.20;;;4.63;;
4867;SDS011;2448;48.086;10.862;2023-07-08T03:01:46;15.40;;;4.50;;
4867;SDS011;2448;48.086;10.862;2023-07-08T03:04:13;9.53;;;4.80;;
4867;SDS011;2448;48.086;10.862;2023-07-08T03:06:39;13.83;;;5.30;;
4867;SDS011;2448;48.086;10.862;2023-07-08T03:09:05;7.43;;;4.53;;
4867;SDS011;2448;48.086;10.862;2023-07-08T03:11:31;10.17;;;4.50;;
4867;SDS011;2448;48.086;10.862;2023-07-08T03:13:56;8.50;;;4.30;;
4867;SDS011;2448;48.086;10.862;2023-07-08T03:16:22;8.47;;;4.77;;
4867;SDS011;2448;48.086;10.862;2023-07-08T03:18:47;10.63;;;4.63;;
4867;SDS011;2448;48.086;10.862;2023-07-08T03:21:14;7.97;;;4.57;;
4867;SDS011;2448;48.086;10.862;2023-07-08T03:23:40;9.67;;;4.80;;
4867;SDS011;2448;48.086;10.862;2023-07-08T03:26:05;8.67;;;4.53;;
4867;SDS011;2448;48.086;10.862;2023-07-08T03:28:31;8.20;;;5.00;;
4867;SDS011;2448;48.086;10.862;2023-07-08T03:30:57;7.90;;;4.47;;
4867;SDS011;2448;48.086;10.862;2023-07-08T03:33:22;16.13;;;4.87;;
4867;SDS011;2448;48.086;10.862;2023-07-08T03:35:49;8.70;;;5.00;;
4867;SDS011;2448;48.086;10.862;2023-07-08T03:38:15;8.73;;;4.87;;
4867;SDS011;2448;48.086;10.862;2023-07-08T03:40:40;6.90;;;4.20;;
4867;SDS011;2448;48.086;10.862;2023-07-08T03:43:07;18.80;;;5.93;;
4867;SDS011;2448;48.086;10.862;2023-07-08T03:45:34;11.30;;;4.80;;
4867;SDS011;2448;48.086;10.862;2023-07-08T03:48:00;11.20;;;5.40;;
4867;SDS011;2448;48.086;10.862;2023-07-08T03:50:26;12.93;;;4.50;;
4867;SDS011;2448;48.086;10.862;2023-07-08T03:52:52;10.27;;;5.30;;
4867;SDS011;2448;48.086;10.862;2023-07-08T03:55:19;12.77;;;4.87;;
4867;SDS011;2448;48.086;10.862;2023-07-08T03:57:45;9.90;;;5.53;;
4867;SDS011;2448;48.086;10.862;2023-07-08T04:00:10;7.43;;;4.90;;
4867;SDS011;2448;48.086;10.862;2023-07-08T04:02:40;10.90;;;5.20;;
4867;SDS011;2448;48.086;10.862;2023-07-08T04:05:10;9.27;;;5.07;;
4867;SDS011;2448;48.086;10.862;2023-07-08T04:07:37;13.70;;;5.00;;
4867;SDS011;2448;48.086;10.862;2023-07-08T04:10:03;10.10;;;5.70;;
4867;SDS011;2448;48.086;10.862;2023-07-08T04:12:28;8.07;;;4.60;;
4867;SDS011;2448;48.086;10.862;2023-07-08T04:14:53;9.13;;;5.27;;
4867;SDS011;2448;48.086;10.862;2023-07-08T04:17:19;7.10;;;4.07;;
4867;SDS011;2448;48.086;10.862;2023-07-08T04:19:44;9.60;;;4.50;;
4867;SDS011;2448;48.086;10.862;2023-07-08T04:22:10;8.50;;;5.00;;
4867;SDS011;2448;48.086;10.862;2023-07-08T04:24:35;12.80;;;6.00;;
4867;SDS011;2448;48.086;10.862;2023-07-08T04:27:00;7.13;;;4.47;;
4867;SDS011;2448;48.086;10.862;2023-07-08T04:29:26;9.73;;;4.90;;
4867;SDS011;2448;48.086;10.862;2023-07-08T04:31:51;10.00;;;5.37;;
4867;SDS011;2448;48.086;10.862;2023-07-08T04:34:16;8.20;;;4.60;;
4867;SDS011;2448;48.086;10.862;2023-07-08T04:36:42;11.67;;;5.17;;
4867;SDS011;2448;48.086;10.862;2023-07-08T04:39:08;9.03;;;5.20;;
4867;SDS011;2448;48.086;10.862;2023-07-08T04:41:35;9.90;;;5.20;;
4867;SDS011;2448;48.086;10.862;2023-07-08T04:44:06;7.67;;;4.20;;
4867;SDS011;2448;48.086;10.862;2023-07-08T04:49:00;9.30;;;4.93;;
4867;SDS011;2448;48.086;10.862;2023-07-08T04:51:26;8.23;;;5.00;;
4867;SDS011;2448;48.086;10.862;2023-07-08T04:53:51;9.00;;;5.10;;
4867;SDS011;2448;48.086;10.862;2023-07-08T04:56:16;9.57;;;4.90;;
4867;SDS011;2448;48.086;10.862;2023-07-08T04:58:42;10.00;;;5.30;;
4867;SDS011;2448;48.086;10.862;2023-07-08T05:01:07;11.50;;;5.17;;
4867;SDS011;2448;48.086;10.862;2023-07-08T05:03:32;9.20;;;5.07;;
4867;SDS011;2448;48.086;10.862;2023-07-08T05:05:58;14.30;;;5.27;;
4867;SDS011;2448;48.086;10.862;2023-07-08T05:08:23;8.87;;;4.63;;
4867;SDS011;2448;48.086;10.862;2023-07-08T05:10:48;15.90;;;5.03;;
4867;SDS011;2448;48.086;10.862;2023-07-08T05:13:14;11.13;;;5.13;;
4867;SDS011;2448;48.086;10.862;2023-07-08T05:15:39;8.50;;;4.80;;
4867;SDS011;2448;48.086;10.862;2023-07-08T05:18:04;8.97;;;5.27;;
4867;SDS011;2448;48.086;10.862;2023-07-08T05:20:30;7.20;;;4.83;;
4867;SDS011;2448;48.086;10.862;2023-07-08T05:22:58;7.93;;;4.93;;
4867;SDS011;2448;48.086;10.862;2023-07-08T05:25:23;11.07;;;5.40;;
4867;SDS011;2448;48.086;10.862;2023-07-08T05:27:48;8.10;;;5.00;;
4867;SDS011;2448;48.086;10.862;2023-07-08T05:30:15;12.30;;;5.17;;
4867;SDS011;2448;48.086;10.862;2023-07-08T05:32:40;14.23;;;5.90;;
4867;SDS011;2448;48.086;10.862;2023-07-08T05:35:06;11.40;;;5.50;;
4867;SDS011;2448;48.086;10.862;2023-07-08T05:37:31;9.40;;;4.80;;
4867;SDS011;2448;48.086;10.862;2023-07-08T05:39:57;9.13;;;5.30;;
4867;SDS011;2448;48.086;10.862;2023-07-08T05:42:25;7.27;;;4.40;;
4867;SDS011;2448;48.086;10.862;2023-07-08T05:44:50;9.90;;;5.40;;
4867;SDS011;2448;48.086;10.862;2023-07-08T05:47:17;10.77;;;5.33;;
4867;SDS011;2448;48.086;10.862;2023-07-08T05:49:42;7.80;;;4.63;;
4867;SDS011;2448;48.086;10.862;2023-07-08T05:52:08;8.47;;;4.47;;
4867;SDS011;2448;48.086;10.862;2023-07-08T05:54:39;7.10;;;4.90;;
4867;SDS011;2448;48.086;10.862;2023-07-08T05:57:05;10.20;;;5.43;;
4867;SDS011;2448;48.086;10.862;2023-07-08T05:59:31;8.03;;;4.80;;
4867;SDS011;2448;48.086;10.862;2023-07-08T06:01:56;9.27;;;5.30;;
4867;SDS011;2448;48.086;10.862;2023-07-08T06:04:22;10.87;;;5.80;;
4867;SDS011;2448;48.086;10.862;2023-07-08T06:06:47;12.40;;;5.00;;
4867;SDS011;2448;48.086;10.862;2023-07-08T06:09:12;7.53;;;4.67;;
4867;SDS011;2448;48.086;10.862;2023-07-08T06:11:38;9.80;;;5.33;;
4867;SDS011;2448;48.086;10.862;2023-07-08T06:14:03;11.23;;;5.30;;
4867;SDS011;2448;48.086;10.862;2023-07-08T06:16:29;9.00;;;5.10;;
4867;SDS011;2448;48.086;10.862;2023-07-08T06:18:55;9.73;;;5.13;;
4867;SDS011;2448;48.086;10.862;2023-07-08T06:21:21;8.57;;;5.10;;
4867;SDS011;2448;48.086;10.862;2023-07-08T06:23:46;8.50;;;4.87;;
4867;SDS011;2448;48.086;10.862;2023-07-08T06:26:12;7.40;;;4.70;;
4867;SDS011;2448;48.086;10.862;2023-07-08T06:28:37;9.73;;;5.30;;
4867;SDS011;2448;48.086;10.862;2023-07-08T06:31:02;7.17;;;4.30;;
4867;SDS011;2448;48.086;10.862;2023-07-08T06:33:28;8.00;;;4.77;;
4867;SDS011;2448;48.086;10.862;2023-07-08T06:35:53;11.63;;;4.40;;
4867;SDS011;2448;48.086;10.862;2023-07-08T06:38:18;8.50;;;4.63;;
4867;SDS011;2448;48.086;10.862;2023-07-08T06:40:44;6.37;;;4.03;;
4867;SDS011;2448;48.086;10.862;2023-07-08T06:43:09;11.70;;;4.40;;
4867;SDS011;2448;48.086;10.862;2023-07-08T06:45:40;11.07;;;4.37;;
4867;SDS011;2448;48.086;10.862;2023-07-08T06:48:06;7.73;;;4.83;;
4867;SDS011;2448;48.086;10.862;2023-07-08T06:50:31;6.10;;;4.30;;
4867;SDS011;2448;48.086;10.862;2023-07-08T06:52:57;11.00;;;4.67;;
4867;SDS011;2448;48.086;10.862;2023-07-08T06:55:23;11.53;;;4.83;;
4867;SDS011;2448;48.086;10.862;2023-07-08T06:57:48;5.63;;;3.77;;
4867;SDS011;2448;48.086;10.862;2023-07-08T07:00:13;11.53;;;4.10;;
4867;SDS011;2448;48.086;10.862;2023-07-08T07:02:39;7.97;;;4.20;;
4867;SDS011;2448;48.086;10.862;2023-07-08T07:05:04;7.80;;;4.23;;
4867;SDS011;2448;48.086;10.862;2023-07-08T07:07:30;6.47;;;3.93;;
4867;SDS011;2448;48.086;10.862;2023-07-08T07:09:55;12.43;;;4.70;;
4867;SDS011;2448;48.086;10.862;2023-07-08T07:12:21;12.13;;;4.77;;
4867;SDS011;2448;48.086;10.862;2023-07-08T07:14:47;8.70;;;4.37;;
4867;SDS011;2448;48.086;10.862;2023-07-08T07:17:15;9.10;;;4.30;;
4867;SDS011;2448;48.086;10.862;2023-07-08T07:19:40;8.43;;;4.00;;
4867;SDS011;2448;48.086;10.862;2023-07-08T07:22:05;12.50;;;4.57;;
4867;SDS011;2448;48.086;10.862;2023-07-08T07:24:31;6.37;;;3.97;;
4867;SDS011;2448;48.086;10.862;2023-07-08T07:26:56;8.43;;;4.37;;
4867;SDS011;2448;48.086;10.862;2023-07-08T07:29:22;5.97;;;3.87;;
4867;SDS011;2448;48.086;10.862;2023-07-08T07:31:48;9.03;;;4.30;;
4867;SDS011;2448;48.086;10.862;2023-07-08T07:34:13;5.90;;;4.10;;
4867;SDS011;2448;48.086;10.862;2023-07-08T07:36:39;9.60;;;4.53;;
4867;SDS011;2448;48.086;10.862;2023-07-08T07:39:04;22.17;;;4.33;;
4867;SDS011;2448;48.086;10.862;2023-07-08T07:41:30;8.67;;;4.47;;
4867;SDS011;2448;48.086;10.862;2023-07-08T07:43:55;5.37;;;3.93;;
4867;SDS011;2448;48.086;10.862;2023-07-08T07:46:20;10.53;;;5.40;;
4867;SDS011;2448;48.086;10.862;2023-07-08T07:48:46;9.67;;;5.20;;
4867;SDS011;2448;48.086;10.862;2023-07-08T07:51:11;9.37;;;4.30;;
4867;SDS011;2448;48.086;10.862;2023-07-08T07:53:37;10.70;;;4.77;;
4867;SDS011;2448;48.086;10.862;2023-07-08T07:56:03;7.80;;;4.50;;
4867;SDS011;2448;48.086;10.862;2023-07-08T07:58:29;6.67;;;4.43;;
4867;SDS011;2448;48.086;10.862;2023-07-08T08:00:54;7.87;;;4.27;;
4867;SDS011;2448;48.086;10.862;2023-07-08T08:03:20;12.07;;;4.27;;
4867;SDS011;2448;48.086;10.862;2023-07-08T08:05:46;6.80;;;3.80;;
4867;SDS011;2448;48.086;10.862;2023-07-08T08:08:11;9.47;;;4.67;;
4867;SDS011;2448;48.086;10.862;2023-07-08T08:10:37;9.80;;;4.20;;
4867;SDS011;2448;48.086;10.862;2023-07-08T08:13:02;8.23;;;4.60;;
4867;SDS011;2448;48.086;10.862;2023-07-08T08:15:27;9.30;;;4.90;;
4867;SDS011;2448;48.086;10.862;2023-07-08T08:17:53;5.83;;;3.70;;
4867;SDS011;2448;48.086;10.862;2023-07-08T08:20:19;9.27;;;4.13;;
4867;SDS011;2448;48.086;10.862;2023-07-08T08:22:45;6.77;;;3.57;;
4867;SDS011;2448;48.086;10.862;2023-07-08T08:25:10;7.90;;;3.67;;
4867;SDS011;2448;48.086;10.862;2023-07-08T08:27:36;7.67;;;3.83;;
4867;SDS011;2448;48.086;10.862;2023-07-08T08:30:01;6.07;;;3.90;;
4867;SDS011;2448;48.086;10.862;2023-07-08T08:32:27;5.00;;;3.50;;
4867;SDS011;2448;48.086;10.862;2023-07-08T08:34:52;4.90;;;3.37;;
4867;SDS011;2448;48.086;10.862;2023-07-08T08:37:18;13.93;;;4.13;;
4867;SDS011;2448;48.086;10.862;2023-07-08T08:39:43;5.30;;;3.50;;
4867;SDS011;2448;48.086;10.862;2023-07-08T08:42:13;4.07;;;3.13;;
4867;SDS011;2448;48.086;10.862;2023-07-08T08:44:41;5.67;;;3.67;;
4867;SDS011;2448;48.086;10.862;2023-07-08T08:47:21;7.23;;;4.30;;
4867;SDS011;2448;48.086;10.862;2023-07-08T08:49:53;11.63;;;3.60;;
4867;SDS011;2448;48.086;10.862;2023-07-08T08:52:21;5.87;;;3.27;;
4867;SDS011;2448;48.086;10.862;2023-07-08T08:54:46;6.60;;;3.67;;
4867;SDS011;2448;48.086;10.862;2023-07-08T08:59:54;5.07;;;3.60;;
4867;SDS011;2448;48.086;10.862;2023-07-08T09:04:51;3.77;;;3.07;;
4867;SDS011;2448;48.086;10.862;2023-07-08T09:07:18;17.20;;;3.13;;
4867;SDS011;2448;48.086;10.862;2023-07-08T09:12:13;5.27;;;3.73;;
4867;SDS011;2448;48.086;10.862;2023-07-08T09:14:41;3.50;;;3.20;;
4867;SDS011;2448;48.086;10.862;2023-07-08T09:22:36;7.28;;;3.40;;
4867;SDS011;2448;48.086;10.862;2023-07-08T09:27:29;3.90;;;3.25;;
4867;SDS011;2448;48.086;10.862;2023-07-08T09:29:55;4.63;;;2.97;;
4867;SDS011;2448;48.086;10.862;2023-07-08T09:32:22;3.20;;;2.50;;
4867;SDS011;2448;48.086;10.862;2023-07-08T09:34:52;6.93;;;3.07;;
4867;SDS011;2448;48.086;10.862;2023-07-08T09:37:28;3.57;;;3.00;;
4867;SDS011;2448;48.086;10.862;2023-07-08T09:39:54;4.93;;;2.85;;
4867;SDS011;2448;48.086;10.862;2023-07-08T09:42:21;2.28;;;2.03;;
4867;SDS011;2448;48.086;10.862;2023-07-08T09:44:47;6.45;;;2.20;;
4867;SDS011;2448;48.086;10.862;2023-07-08T09:47:29;4.35;;;2.35;;
4867;SDS011;2448;48.086;10.862;2023-07-08T09:49:58;2.58;;;2.05;;
4867;SDS011;2448;48.086;10.862;2023-07-08T09:52:24;3.40;;;2.40;;
4867;SDS011;2448;48.086;10.862;2023-07-08T09:54:49;2.15;;;1.98;;
4867;SDS011;2448;48.086;10.862;2023-07-08T09:59:46;1.88;;;1.77;;
4867;SDS011;2448;48.086;10.862;2023-07-08T10:02:55;2.22;;;2.03;;
4867;SDS011;2448;48.086;10.862;2023-07-08T10:05:06;3.88;;;1.80;;
4867;SDS011;2448;48.086;10.862;2023-07-08T10:07:32;1.60;;;1.50;;
4867;SDS011;2448;48.086;10.862;2023-07-08T10:09:59;4.45;;;1.98;;
4867;SDS011;2448;48.086;10.862;2023-07-08T10:12:25;2.80;;;2.33;;
4867;SDS011;2448;48.086;10.862;2023-07-08T10:14:52;2.67;;;2.42;;
4867;SDS011;2448;48.086;10.862;2023-07-08T10:17:19;7.43;;;2.83;;
4867;SDS011;2448;48.086;10.862;2023-07-08T10:19:45;3.13;;;2.20;;
4867;SDS011;2448;48.086;10.862;2023-07-08T10:24:51;2.70;;;1.90;;
4867;SDS011;2448;48.086;10.862;2023-07-08T10:32:30;2.97;;;1.70;;
4867;SDS011;2448;48.086;10.862;2023-07-08T10:40:24;1.55;;;1.55;;
4867;SDS011;2448;48.086;10.862;2023-07-08T10:51:10;2.05;;;1.85;;
4867;SDS011;2448;48.086;10.862;2023-07-08T10:53:41;2.22;;;2.03;;
4867;SDS011;2448;48.086;10.862;2023-07-08T11:06:53;5.15;;;1.55;;
4867;SDS011;2448;48.086;10.862;2023-07-08T11:09:22;2.28;;;2.10;;
4867;SDS011;2448;48.086;10.862;2023-07-08T11:11:51;2.10;;;1.88;;
4867;SDS011;2448;48.086;10.862;2023-07-08T11:14:33;3.58;;;1.50;;
4867;SDS011;2448;48.086;10.862;2023-07-08T11:19:32;1.63;;;1.52;;
4867;SDS011;2448;48.086;10.862;2023-07-08T11:22:00;2.10;;;1.73;;
4867;SDS011;2448;48.086;10.862;2023-07-08T11:24:32;6.07;;;2.30;;
4867;SDS011;2448;48.086;10.862;2023-07-08T11:29:54;2.35;;;2.15;;
4867;SDS011;2448;48.086;10.862;2023-07-08T11:32:22;2.10;;;1.98;;
4867;SDS011;2448;48.086;10.862;2023-07-08T11:34:49;5.22;;;1.80;;
4867;SDS011;2448;48.086;10.862;2023-07-08T11:37:15;4.65;;;1.60;;
4867;SDS011;2448;48.086;10.862;2023-07-08T11:39:41;1.83;;;1.73;;
4867;SDS011;2448;48.086;10.862;2023-07-08T11:42:15;3.22;;;1.85;;
4867;SDS011;2448;48.086;10.862;2023-07-08T11:44:43;3.33;;;1.90;;
4867;SDS011;2448;48.086;10.862;2023-07-08T11:47:13;1.92;;;1.70;;
4867;SDS011;2448;48.086;10.862;2023-07-08T11:49:40;1.58;;;1.48;;
4867;SDS011;2448;48.086;10.862;2023-07-08T11:52:08;6.90;;;2.03;;
4867;SDS011;2448;48.086;10.862;2023-07-08T11:54:39;4.55;;;1.60;;
4867;SDS011;2448;48.086;10.862;2023-07-08T11:57:18;1.90;;;1.80;;
4867;SDS011;2448;48.086;10.862;2023-07-08T11:59:44;4.80;;;1.98;;
4867;SDS011;2448;48.086;10.862;2023-07-08T12:02:12;1.90;;;1.80;;
4867;SDS011;2448;48.086;10.862;2023-07-08T12:07:20;2.70;;;1.80;;
4867;SDS011;2448;48.086;10.862;2023-07-08T12:09:58;3.67;;;2.05;;
4867;SDS011;2448;48.086;10.862;2023-07-08T12:12:26;3.90;;;2.10;;
4867;SDS011;2448;48.086;10.862;2023-07-08T12:14:53;2.03;;;1.93;;
4867;SDS011;2448;48.086;10.862;2023-07-08T12:17:23;2.35;;;1.75;;
4867;SDS011;2448;48.086;10.862;2023-07-08T12:19:49;2.53;;;1.55;;
4867;SDS011;2448;48.086;10.862;2023-07-08T12:22:15;1.88;;;1.67;;
4867;SDS011;2448;48.086;10.862;2023-07-08T12:24:40;2.17;;;2.03;;
4867;SDS011;2448;48.086;10.862;2023-07-08T12:27:07;1.70;;;1.60;;
4867;SDS011;2448;48.086;10.862;2023-07-08T12:29:33;4.43;;;1.80;;
4867;SDS011;2448;48.086;10.862;2023-07-08T12:31:58;1.43;;;1.40;;
4867;SDS011;2448;48.086;10.862;2023-07-08T12:34:23;2.47;;;1.93;;
4867;SDS011;2448;48.086;10.862;2023-07-08T12:36:50;2.10;;;2.00;;
4867;SDS011;2448;48.086;10.862;2023-07-08T12:39:16;2.10;;;2.00;;
4867;SDS011;2448;48.086;10.862;2023-07-08T12:41:42;2.00;;;1.80;;
4867;SDS011;2448;48.086;10.862;2023-07-08T12:44:14;3.27;;;1.60;;
4867;SDS011;2448;48.086;10.862;2023-07-08T12:46:40;3.80;;;1.70;;
4867;SDS011;2448;48.086;10.862;2023-07-08T12:49:05;2.80;;;1.93;;
4867;SDS011;2448;48.086;10.862;2023-07-08T12:51:30;3.67;;;2.27;;
4867;SDS011;2448;48.086;10.862;2023-07-08T12:53:56;4.83;;;2.23;;
4867;SDS011;2448;48.086;10.862;2023-07-08T12:56:22;1.60;;;1.50;;
4867;SDS011;2448;48.086;10.862;2023-07-08T12:58:49;9.23;;;2.03;;
4867;SDS011;2448;48.086;10.862;2023-07-08T13:01:22;2.30;;;1.30;;
4867;SDS011;2448;48.086;10.862;2023-07-08T13:03:54;1.63;;;1.53;;
4867;SDS011;2448;48.086;10.862;2023-07-08T13:06:21;1.52;;;1.42;;
4867;SDS011;2448;48.086;10.862;2023-07-08T13:08:47;1.50;;;1.40;;
4867;SDS011;2448;48.086;10.862;2023-07-08T13:11:16;3.28;;;1.80;;
4867;SDS011;2448;48.086;10.862;2023-07-08T13:13:45;1.40;;;1.30;;
4867;SDS011;2448;48.086;10.862;2023-07-08T13:16:12;2.00;;;1.25;;
4867;SDS011;2448;48.086;10.862;2023-07-08T13:18:40;1.48;;;1.38;;
4867;SDS011;2448;48.086;10.862;2023-07-08T13:21:08;1.40;;;1.30;;
4867;SDS011;2448;48.086;10.862;2023-07-08T13:23:34;1.87;;;1.77;;
4867;SDS011;2448;48.086;10.862;2023-07-08T13:25:59;2.50;;;1.40;;
4867;SDS011;2448;48.086;10.862;2023-07-08T13:28:26;2.10;;;1.73;;
4867;SDS011;2448;48.086;10.862;2023-07-08T13:30:53;1.40;;;1.30;;
4867;SDS011;2448;48.086;10.862;2023-07-08T13:33:19;4.10;;;2.10;;
4867;SDS011;2448;48.086;10.862;2023-07-08T13:35:45;2.63;;;1.48;;
4867;SDS011;2448;48.086;10.862;2023-07-08T13:38:18;1.30;;;1.30;;
4867;SDS011;2448;48.086;10.862;2023-07-08T13:40:47;1.80;;;1.70;;
4867;SDS011;2448;48.086;10.862;2023-07-08T13:43:13;3.78;;;1.40;;
4867;SDS011;2448;48.086;10.862;2023-07-08T13:45:41;2.47;;;1.35;;
4867;SDS011;2448;48.086;10.862;2023-07-08T13:48:35;6.53;;;2.10;;
4867;SDS011;2448;48.086;10.862;2023-07-08T13:51:01;4.05;;;2.00;;
4867;SDS011;2448;48.086;10.862;2023-07-08T13:53:38;1.88;;;1.77;;
4867;SDS011;2448;48.086;10.862;2023-07-08T13:56:19;1.67;;;1.57;;
4867;SDS011;2448;48.086;10.862;2023-07-08T13:58:46;1.77;;;1.60;;
4867;SDS011;2448;48.086;10.862;2023-07-08T14:01:34;1.50;;;1.40;;
4867;SDS011;2448;48.086;10.862;2023-07-08T14:03:58;2.65;;;1.63;;
4867;SDS011;2448;48.086;10.862;2023-07-08T14:06:28;1.73;;;1.63;;
4867;SDS011;2448;48.086;10.862;2023-07-08T14:08:55;4.63;;;1.67;;
4867;SDS011;2448;48.086;10.862;2023-07-08T14:11:21;3.58;;;1.50;;
4867;SDS011;2448;48.086;10.862;2023-07-08T14:13:47;1.70;;;1.60;;
4867;SDS011;2448;48.086;10.862;2023-07-08T14:18:46;1.83;;;1.73;;
4867;SDS011;2448;48.086;10.862;2023-07-08T14:21:11;1.77;;;1.67;;
4867;SDS011;2448;48.086;10.862;2023-07-08T14:23:37;3.80;;;1.53;;
4867;SDS011;2448;48.086;10.862;2023-07-08T14:26:06;17.23;;;1.90;;
4867;SDS011;2448;48.086;10.862;2023-07-08T14:28:32;4.00;;;1.60;;
4867;SDS011;2448;48.086;10.862;2023-07-08T14:30:57;2.23;;;1.87;;
4867;SDS011;2448;48.086;10.862;2023-07-08T14:33:23;1.93;;;1.70;;
4867;SDS011;2448;48.086;10.862;2023-07-08T14:35:48;2.23;;;2.10;;
4867;SDS011;2448;48.086;10.862;2023-07-08T14:38:14;2.03;;;1.93;;
4867;SDS011;2448;48.086;10.862;2023-07-08T14:40:40;5.70;;;1.70;;
4867;SDS011;2448;48.086;10.862;2023-07-08T14:43:16;2.87;;;1.80;;
4867;SDS011;2448;48.086;10.862;2023-07-08T14:45:47;7.53;;;1.97;;
4867;SDS011;2448;48.086;10.862;2023-07-08T14:48:13;4.60;;;1.73;;
4867;SDS011;2448;48.086;10.862;2023-07-08T14:50:38;4.32;;;2.65;;
4867;SDS011;2448;48.086;10.862;2023-07-08T14:53:04;2.40;;;2.20;;
4867;SDS011;2448;48.086;10.862;2023-07-08T14:55:29;2.03;;;1.80;;
4867;SDS011;2448;48.086;10.862;2023-07-08T14:57:54;2.27;;;2.07;;
4867;SDS011;2448;48.086;10.862;2023-07-08T15:00:22;2.97;;;1.73;;
4867;SDS011;2448;48.086;10.862;2023-07-08T15:02:47;1.93;;;1.73;;
4867;SDS011;2448;48.086;10.862;2023-07-08T15:05:24;2.13;;;1.98;;
4867;SDS011;2448;48.086;10.862;2023-07-08T15:07:50;1.90;;;1.80;;
4867;SDS011;2448;48.086;10.862;2023-07-08T15:10:16;2.27;;;1.90;;
4867;SDS011;2448;48.086;10.862;2023-07-08T15:12:41;5.70;;;2.10;;
4867;SDS011;2448;48.086;10.862;2023-07-08T15:18:14;1.77;;;1.67;;
4867;SDS011;2448;48.086;10.862;2023-07-08T15:20:40;6.90;;;2.03;;
4867;SDS011;2448;48.086;10.862;2023-07-08T15:23:05;2.23;;;2.13;;
4867;SDS011;2448;48.086;10.862;2023-07-08T15:25:31;9.90;;;2.27;;
4867;SDS011;2448;48.086;10.862;2023-07-08T15:27:59;1.70;;;1.60;;
4867;SDS011;2448;48.086;10.862;2023-07-08T15:30:27;7.93;;;1.80;;
4867;SDS011;2448;48.086;10.862;2023-07-08T15:32:53;2.23;;;1.90;;
4867;SDS011;2448;48.086;10.862;2023-07-08T15:35:20;5.97;;;1.97;;
4867;SDS011;2448;48.086;10.862;2023-07-08T15:37:46;2.60;;;2.40;;
4867;SDS011;2448;48.086;10.862;2023-07-08T15:40:13;2.27;;;2.07;;
4867;SDS011;2448;48.086;10.862;2023-07-08T15:42:39;2.70;;;2.30;;
4867;SDS011;2448;48.086;10.862;2023-07-08T15:45:12;2.63;;;2.00;;
4867;SDS011;2448;48.086;10.862;2023-07-08T15:47:38;6.80;;;2.07;;
4867;SDS011;2448;48.086;10.862;2023-07-08T15:50:08;1.93;;;1.83;;
4867;SDS011;2448;48.086;10.862;2023-07-08T15:52:34;4.93;;;2.17;;
4867;SDS011;2448;48.086;10.862;2023-07-08T15:54:59;4.03;;;2.13;;
4867;SDS011;2448;48.086;10.862;2023-07-08T15:57:24;8.17;;;1.97;;
4867;SDS011;2448;48.086;10.862;2023-07-08T15:59:50;5.37;;;1.90;;
4867;SDS011;2448;48.086;10.862;2023-07-08T16:02:24;1.80;;;1.70;;
4867;SDS011;2448;48.086;10.862;2023-07-08T16:04:50;4.30;;;2.10;;
4867;SDS011;2448;48.086;10.862;2023-07-08T16:07:15;2.33;;;1.83;;
4867;SDS011;2448;48.086;10.862;2023-07-08T16:09:41;2.27;;;1.60;;